sensor_id;sensor_type;location;lat;lon;timestamp;P1;durP1;ratioP1;P2;durP2;ratioP2
26098;SDS011;13860;52.370;6.764;2024-02-26T00:01:39;9.48;;;5.32;;
26098;SDS011;13860;52.370;6.764;2024-02-26T00:04:45;8.07;;;5.43;;
26098;SDS011;13860;52.370;6.764;2024-02-26T00:07:54;11.95;;;6.28;;
26098;SDS011;13860;52.370;6.764;2024-02-26T00:11:01;6.60;;;5.38;;
26098;SDS011;13860;52.370;6.764;2024-02-26T00:14:09;6.30;;;5.07;;
26098;SDS011;13860;52.370;6.764;2024-02-26T00:17:17;10.32;;;5.95;;
26098;SDS011;13860;52.370;6.764;2024-02-26T00:20:24;8.65;;;5.72;;
26098;SDS011;13860;52.370;6.764;2024-02-26T00:23:30;10.95;;;5.30;;
26098;SDS011;13860;52.370;6.764;2024-02-26T00:26:37;7.40;;;5.60;;
26098;SDS011;13860;52.370;6.764;2024-02-26T00:29:43;8.73;;;5.63;;
26098;SDS011;13860;52.370;6.764;2024-02-26T00:32:53;8.65;;;5.88;;
26098;SDS011;13860;52.370;6.764;2024-02-26T00:35:59;7.50;;;5.53;;
26098;SDS011;13860;52.370;6.764;2024-02-26T00:39:06;10.40;;;5.35;;
26098;SDS011;13860;52.370;6.764;2024-02-26T00:42:12;10.15;;;5.88;;
26098;SDS011;13860;52.370;6.764;2024-02-26T00:45:20;8.10;;;5.32;;
26098;SDS011;13860;52.370;6.764;2024-02-26T00:48:29;8.65;;;5.57;;
26098;SDS011;13860;52.370;6.764;2024-02-26T00:51:37;8.98;;;5.68;;
26098;SDS011;13860;52.370;6.764;2024-02-26T00:54:43;8.63;;;5.97;;
26098;SDS011;13860;52.370;6.764;2024-02-26T00:57:50;10.07;;;5.65;;
26098;SDS011;13860;52.370;6.764;2024-02-26T01:00:56;6.45;;;4.80;;
26098;SDS011;13860;52.370;6.764;2024-02-26T01:04:06;9.48;;;5.40;;
26098;SDS011;13860;52.370;6.764;2024-02-26T01:07:12;12.73;;;5.85;;
26098;SDS011;13860;52.370;6.764;2024-02-26T01:10:20;13.30;;;5.22;;
26098;SDS011;13860;52.370;6.764;2024-02-26T01:13:25;9.85;;;5.78;;
26098;SDS011;13860;52.370;6.764;2024-02-26T01:16:33;8.32;;;5.65;;
26098;SDS011;13860;52.370;6.764;2024-02-26T01:19:41;9.48;;;6.13;;
26098;SDS011;13860;52.370;6.764;2024-02-26T01:22:49;9.75;;;6.28;;
26098;SDS011;13860;52.370;6.764;2024-02-26T01:25:55;8.00;;;5.80;;
26098;SDS011;13860;52.370;6.764;2024-02-26T01:29:03;11.30;;;6.35;;
26098;SDS011;13860;52.370;6.764;2024-02-26T01:32:08;9.93;;;6.05;;
26098;SDS011;13860;52.370;6.764;2024-02-26T01:35:19;8.70;;;5.53;;
26098;SDS011;13860;52.370;6.764;2024-02-26T01:38:25;11.07;;;5.57;;
26098;SDS011;13860;52.370;6.764;2024-02-26T01:41:32;11.63;;;5.60;;
26098;SDS011;13860;52.370;6.764;2024-02-26T01:44:38;9.98;;;6.07;;
26098;SDS011;13860;52.370;6.764;2024-02-26T01:47:46;7.50;;;5.72;;
26098;SDS011;13860;52.370;6.764;2024-02-26T01:50:56;11.57;;;5.63;;
26098;SDS011;13860;52.370;6.764;2024-02-26T01:54:04;9.88;;;5.75;;
26098;SDS011;13860;52.370;6.764;2024-02-26T01:57:09;7.22;;;5.70;;
26098;SDS011;13860;52.370;6.764;2024-02-26T02:00:18;8.57;;;5.75;;
26098;SDS011;13860;52.370;6.764;2024-02-26T02:03:25;10.30;;;5.20;;
26098;SDS011;13860;52.370;6.764;2024-02-26T02:06:36;8.73;;;5.50;;
26098;SDS011;13860;52.370;6.764;2024-02-26T02:09:43;9.32;;;5.18;;
26098;SDS011;13860;52.370;6.764;2024-02-26T02:12:50;8.73;;;5.78;;
26098;SDS011;13860;52.370;6.764;2024-02-26T02:15:56;10.30;;;5.72;;
26098;SDS011;13860;52.370;6.764;2024-02-26T02:19:04;8.90;;;5.57;;
26098;SDS011;13860;52.370;6.764;2024-02-26T02:22:12;10.50;;;5.97;;
26098;SDS011;13860;52.370;6.764;2024-02-26T02:25:20;8.07;;;5.95;;
26098;SDS011;13860;52.370;6.764;2024-02-26T02:28:25;8.75;;;5.53;;
26098;SDS011;13860;52.370;6.764;2024-02-26T02:31:34;8.65;;;5.90;;
26098;SDS011;13860;52.370;6.764;2024-02-26T02:34:39;10.23;;;6.00;;
26098;SDS011;13860;52.370;6.764;2024-02-26T02:37:51;8.82;;;5.80;;
26098;SDS011;13860;52.370;6.764;2024-02-26T02:40:58;13.68;;;5.97;;
26098;SDS011;13860;52.370;6.764;2024-02-26T02:44:06;10.15;;;5.78;;
26098;SDS011;13860;52.370;6.764;2024-02-26T02:47:11;9.80;;;5.97;;
26098;SDS011;13860;52.370;6.764;2024-02-26T02:50:19;8.40;;;5.60;;
26098;SDS011;13860;52.370;6.764;2024-02-26T02:53:27;8.88;;;5.68;;
26098;SDS011;13860;52.370;6.764;2024-02-26T02:56:34;9.90;;;6.40;;
26098;SDS011;13860;52.370;6.764;2024-02-26T02:59:40;10.98;;;6.10;;
26098;SDS011;13860;52.370;6.764;2024-02-26T03:02:48;9.68;;;5.85;;
26098;SDS011;13860;52.370;6.764;2024-02-26T03:05:53;8.73;;;5.47;;
26098;SDS011;13860;52.370;6.764;2024-02-26T03:09:04;8.88;;;5.97;;
26098;SDS011;13860;52.370;6.764;2024-02-26T03:12:10;8.90;;;5.57;;
26098;SDS011;13860;52.370;6.764;2024-02-26T03:15:17;10.20;;;5.47;;
26098;SDS011;13860;52.370;6.764;2024-02-26T03:18:23;8.50;;;5.28;;
26098;SDS011;13860;52.370;6.764;2024-02-26T03:21:31;9.68;;;6.78;;
26098;SDS011;13860;52.370;6.764;2024-02-26T03:24:39;9.95;;;5.80;;
26098;SDS011;13860;52.370;6.764;2024-02-26T03:27:46;9.38;;;5.38;;
26098;SDS011;13860;52.370;6.764;2024-02-26T03:30:52;8.18;;;5.53;;
26098;SDS011;13860;52.370;6.764;2024-02-26T03:33:59;9.30;;;5.90;;
26098;SDS011;13860;52.370;6.764;2024-02-26T03:37:05;9.27;;;5.47;;
26098;SDS011;13860;52.370;6.764;2024-02-26T03:40:17;8.75;;;5.20;;
26098;SDS011;13860;52.370;6.764;2024-02-26T03:43:22;7.72;;;5.10;;
26098;SDS011;13860;52.370;6.764;2024-02-26T03:46:30;7.57;;;4.85;;
26098;SDS011;13860;52.370;6.764;2024-02-26T03:49:35;6.22;;;4.47;;
26098;SDS011;13860;52.370;6.764;2024-02-26T03:52:43;12.30;;;5.00;;
26098;SDS011;13860;52.370;6.764;2024-02-26T03:55:51;6.35;;;4.57;;
26098;SDS011;13860;52.370;6.764;2024-02-26T03:59:00;9.23;;;4.43;;
26098;SDS011;13860;52.370;6.764;2024-02-26T04:02:05;8.95;;;4.80;;
26098;SDS011;13860;52.370;6.764;2024-02-26T04:05:13;7.53;;;4.55;;
26098;SDS011;13860;52.370;6.764;2024-02-26T04:08:19;7.53;;;4.25;;
26098;SDS011;13860;52.370;6.764;2024-02-26T04:11:29;10.00;;;4.90;;
26098;SDS011;13860;52.370;6.764;2024-02-26T04:14:35;6.78;;;4.80;;
26098;SDS011;13860;52.370;6.764;2024-02-26T04:17:43;7.57;;;4.45;;
26098;SDS011;13860;52.370;6.764;2024-02-26T04:20:48;5.97;;;3.97;;
26098;SDS011;13860;52.370;6.764;2024-02-26T04:23:56;6.80;;;4.32;;
26098;SDS011;13860;52.370;6.764;2024-02-26T04:27:06;8.23;;;4.85;;
26098;SDS011;13860;52.370;6.764;2024-02-26T04:30:13;6.72;;;4.68;;
26098;SDS011;13860;52.370;6.764;2024-02-26T04:33:20;11.25;;;4.97;;
26098;SDS011;13860;52.370;6.764;2024-02-26T04:36:27;6.63;;;4.40;;
26098;SDS011;13860;52.370;6.764;2024-02-26T04:39:33;8.65;;;5.60;;
26098;SDS011;13860;52.370;6.764;2024-02-26T04:42:43;10.40;;;5.18;;
26098;SDS011;13860;52.370;6.764;2024-02-26T04:45:49;11.15;;;5.72;;
26098;SDS011;13860;52.370;6.764;2024-02-26T04:48:56;8.52;;;5.63;;
26098;SDS011;13860;52.370;6.764;2024-02-26T04:52:02;11.07;;;5.30;;
26098;SDS011;13860;52.370;6.764;2024-02-26T04:55:10;7.28;;;4.72;;
26098;SDS011;13860;52.370;6.764;2024-02-26T04:58:18;7.53;;;5.20;;
26098;SDS011;13860;52.370;6.764;2024-02-26T05:01:26;8.00;;;5.03;;
26098;SDS011;13860;52.370;6.764;2024-02-26T05:04:31;8.63;;;5.32;;
26098;SDS011;13860;52.370;6.764;2024-02-26T05:07:39;10.65;;;5.78;;
26098;SDS011;13860;52.370;6.764;2024-02-26T05:10:45;9.25;;;5.55;;
26098;SDS011;13860;52.370;6.764;2024-02-26T05:13:56;9.05;;;6.13;;
26098;SDS011;13860;52.370;6.764;2024-02-26T05:17:02;9.52;;;6.35;;
26098;SDS011;13860;52.370;6.764;2024-02-26T05:20:10;10.95;;;5.85;;
26098;SDS011;13860;52.370;6.764;2024-02-26T05:23:15;13.75;;;6.47;;
26098;SDS011;13860;52.370;6.764;2024-02-26T05:26:26;8.95;;;5.93;;
26098;SDS011;13860;52.370;6.764;2024-02-26T05:29:34;10.60;;;6.57;;
26098;SDS011;13860;52.370;6.764;2024-02-26T05:32:42;11.10;;;6.80;;
26098;SDS011;13860;52.370;6.764;2024-02-26T05:35:47;10.20;;;6.90;;
26098;SDS011;13860;52.370;6.764;2024-02-26T05:38:55;10.45;;;7.13;;
26098;SDS011;13860;52.370;6.764;2024-02-26T05:42:00;14.07;;;8.32;;
26098;SDS011;13860;52.370;6.764;2024-02-26T05:45:11;14.65;;;8.15;;
26098;SDS011;13860;52.370;6.764;2024-02-26T05:48:16;14.35;;;8.18;;
26098;SDS011;13860;52.370;6.764;2024-02-26T05:51:24;13.00;;;8.25;;
26098;SDS011;13860;52.370;6.764;2024-02-26T05:54:30;15.90;;;8.30;;
26098;SDS011;13860;52.370;6.764;2024-02-26T05:57:37;12.15;;;8.10;;
26098;SDS011;13860;52.370;6.764;2024-02-26T06:00:45;16.20;;;9.27;;
26098;SDS011;13860;52.370;6.764;2024-02-26T06:03:53;16.00;;;8.43;;
26098;SDS011;13860;52.370;6.764;2024-02-26T06:06:59;14.80;;;7.80;;
26098;SDS011;13860;52.370;6.764;2024-02-26T06:10:07;14.85;;;8.90;;
26098;SDS011;13860;52.370;6.764;2024-02-26T06:13:12;16.25;;;9.27;;
26098;SDS011;13860;52.370;6.764;2024-02-26T06:16:22;21.75;;;8.90;;
26098;SDS011;13860;52.370;6.764;2024-02-26T06:19:28;13.93;;;8.65;;
26098;SDS011;13860;52.370;6.764;2024-02-26T06:22:35;15.35;;;9.38;;
26098;SDS011;13860;52.370;6.764;2024-02-26T06:25:41;17.27;;;9.10;;
26098;SDS011;13860;52.370;6.764;2024-02-26T06:28:49;16.15;;;8.82;;
26098;SDS011;13860;52.370;6.764;2024-02-26T06:31:59;15.05;;;8.95;;
26098;SDS011;13860;52.370;6.764;2024-02-26T06:35:07;17.27;;;9.80;;
26098;SDS011;13860;52.370;6.764;2024-02-26T06:38:14;22.02;;;10.32;;
26098;SDS011;13860;52.370;6.764;2024-02-26T06:41:22;16.88;;;10.15;;
26098;SDS011;13860;52.370;6.764;2024-02-26T06:44:29;17.45;;;10.23;;
26098;SDS011;13860;52.370;6.764;2024-02-26T06:47:43;18.00;;;9.50;;
26098;SDS011;13860;52.370;6.764;2024-02-26T06:50:49;16.27;;;9.38;;
26098;SDS011;13860;52.370;6.764;2024-02-26T06:53:57;15.85;;;8.82;;
26098;SDS011;13860;52.370;6.764;2024-02-26T06:57:03;16.55;;;9.40;;
26098;SDS011;13860;52.370;6.764;2024-02-26T07:00:11;25.65;;;10.10;;
26098;SDS011;13860;52.370;6.764;2024-02-26T07:03:21;20.70;;;11.15;;
26098;SDS011;13860;52.370;6.764;2024-02-26T07:06:29;18.13;;;10.02;;
26098;SDS011;13860;52.370;6.764;2024-02-26T07:09:35;17.70;;;10.20;;
26098;SDS011;13860;52.370;6.764;2024-02-26T07:12:43;19.17;;;10.27;;
26098;SDS011;13860;52.370;6.764;2024-02-26T07:15:48;16.88;;;9.82;;
26098;SDS011;13860;52.370;6.764;2024-02-26T07:18:58;20.58;;;10.20;;
26098;SDS011;13860;52.370;6.764;2024-02-26T07:22:04;18.98;;;10.15;;
26098;SDS011;13860;52.370;6.764;2024-02-26T07:25:12;15.18;;;8.95;;
26098;SDS011;13860;52.370;6.764;2024-02-26T07:28:18;14.70;;;8.95;;
26098;SDS011;13860;52.370;6.764;2024-02-26T07:31:25;20.25;;;9.60;;
26098;SDS011;13860;52.370;6.764;2024-02-26T07:34:34;16.17;;;9.45;;
26098;SDS011;13860;52.370;6.764;2024-02-26T07:37:47;19.48;;;9.60;;
26098;SDS011;13860;52.370;6.764;2024-02-26T07:40:53;16.15;;;8.93;;
26098;SDS011;13860;52.370;6.764;2024-02-26T07:44:06;15.43;;;8.30;;
26098;SDS011;13860;52.370;6.764;2024-02-26T07:47:12;14.07;;;8.38;;
26098;SDS011;13860;52.370;6.764;2024-02-26T07:50:22;14.40;;;8.45;;
26098;SDS011;13860;52.370;6.764;2024-02-26T07:53:27;13.35;;;7.88;;
26098;SDS011;13860;52.370;6.764;2024-02-26T07:56:35;17.02;;;9.18;;
26098;SDS011;13860;52.370;6.764;2024-02-26T07:59:40;15.95;;;8.75;;
26098;SDS011;13860;52.370;6.764;2024-02-26T08:02:49;15.27;;;8.65;;
26098;SDS011;13860;52.370;6.764;2024-02-26T08:05:57;16.65;;;9.30;;
26098;SDS011;13860;52.370;6.764;2024-02-26T08:09:04;16.08;;;8.98;;
26098;SDS011;13860;52.370;6.764;2024-02-26T08:12:10;16.98;;;9.30;;
26098;SDS011;13860;52.370;6.764;2024-02-26T08:15:17;18.10;;;10.02;;
26098;SDS011;13860;52.370;6.764;2024-02-26T08:18:23;19.90;;;10.02;;
26098;SDS011;13860;52.370;6.764;2024-02-26T08:21:33;22.05;;;10.52;;
26098;SDS011;13860;52.370;6.764;2024-02-26T08:24:39;16.60;;;9.07;;
26098;SDS011;13860;52.370;6.764;2024-02-26T08:27:46;18.20;;;9.63;;
26098;SDS011;13860;52.370;6.764;2024-02-26T08:30:52;19.90;;;10.50;;
26098;SDS011;13860;52.370;6.764;2024-02-26T08:33:59;20.98;;;11.10;;
26098;SDS011;13860;52.370;6.764;2024-02-26T08:37:08;18.95;;;10.18;;
26098;SDS011;13860;52.370;6.764;2024-02-26T08:40:16;26.15;;;10.63;;
26098;SDS011;13860;52.370;6.764;2024-02-26T08:43:21;20.83;;;11.50;;
26098;SDS011;13860;52.370;6.764;2024-02-26T08:46:29;21.25;;;11.25;;
26098;SDS011;13860;52.370;6.764;2024-02-26T08:49:34;23.35;;;11.32;;
26098;SDS011;13860;52.370;6.764;2024-02-26T08:52:44;23.63;;;11.77;;
26098;SDS011;13860;52.370;6.764;2024-02-26T08:55:52;23.02;;;12.40;;
26098;SDS011;13860;52.370;6.764;2024-02-26T08:59:00;23.52;;;11.75;;
26098;SDS011;13860;52.370;6.764;2024-02-26T09:02:07;23.17;;;11.65;;
26098;SDS011;13860;52.370;6.764;2024-02-26T09:05:15;24.85;;;11.00;;
26098;SDS011;13860;52.370;6.764;2024-02-26T09:08:23;23.05;;;12.43;;
26098;SDS011;13860;52.370;6.764;2024-02-26T09:11:30;20.75;;;10.88;;
26098;SDS011;13860;52.370;6.764;2024-02-26T09:14:36;22.10;;;11.25;;
26098;SDS011;13860;52.370;6.764;2024-02-26T09:17:43;21.70;;;11.05;;
26098;SDS011;13860;52.370;6.764;2024-02-26T09:20:52;20.88;;;10.90;;
26098;SDS011;13860;52.370;6.764;2024-02-26T09:24:02;20.30;;;10.13;;
26098;SDS011;13860;52.370;6.764;2024-02-26T09:27:09;24.80;;;11.80;;
26098;SDS011;13860;52.370;6.764;2024-02-26T09:30:16;22.13;;;10.70;;
26098;SDS011;13860;52.370;6.764;2024-02-26T09:33:22;21.60;;;12.13;;
26098;SDS011;13860;52.370;6.764;2024-02-26T09:36:30;21.10;;;11.00;;
26098;SDS011;13860;52.370;6.764;2024-02-26T09:39:53;19.95;;;10.38;;
26098;SDS011;13860;52.370;6.764;2024-02-26T09:43:01;22.23;;;11.05;;
26098;SDS011;13860;52.370;6.764;2024-02-26T09:46:09;23.80;;;11.18;;
26098;SDS011;13860;52.370;6.764;2024-02-26T09:49:18;25.15;;;11.38;;
26098;SDS011;13860;52.370;6.764;2024-02-26T09:52:26;20.52;;;10.52;;
26098;SDS011;13860;52.370;6.764;2024-02-26T09:55:40;20.30;;;10.70;;
26098;SDS011;13860;52.370;6.764;2024-02-26T09:58:46;19.40;;;10.32;;
26098;SDS011;13860;52.370;6.764;2024-02-26T10:01:57;19.67;;;10.48;;
26098;SDS011;13860;52.370;6.764;2024-02-26T10:05:05;17.33;;;8.95;;
26098;SDS011;13860;52.370;6.764;2024-02-26T10:08:16;19.35;;;9.18;;
26098;SDS011;13860;52.370;6.764;2024-02-26T10:11:27;16.63;;;9.70;;
26098;SDS011;13860;52.370;6.764;2024-02-26T10:14:39;17.17;;;9.00;;
26098;SDS011;13860;52.370;6.764;2024-02-26T10:17:44;15.80;;;8.95;;
26098;SDS011;13860;52.370;6.764;2024-02-26T10:20:59;17.08;;;8.93;;
26098;SDS011;13860;52.370;6.764;2024-02-26T10:24:06;15.48;;;8.43;;
26098;SDS011;13860;52.370;6.764;2024-02-26T10:27:22;15.32;;;8.27;;
26098;SDS011;13860;52.370;6.764;2024-02-26T10:30:28;15.15;;;7.13;;
26098;SDS011;13860;52.370;6.764;2024-02-26T10:33:36;13.45;;;7.75;;
26098;SDS011;13860;52.370;6.764;2024-02-26T10:36:44;14.07;;;8.02;;
26098;SDS011;13860;52.370;6.764;2024-02-26T10:39:57;15.50;;;8.05;;
26098;SDS011;13860;52.370;6.764;2024-02-26T10:43:05;14.45;;;7.75;;
26098;SDS011;13860;52.370;6.764;2024-02-26T10:46:13;15.98;;;7.50;;
26098;SDS011;13860;52.370;6.764;2024-02-26T10:49:19;11.23;;;7.25;;
26098;SDS011;13860;52.370;6.764;2024-02-26T10:52:28;12.10;;;7.70;;
26098;SDS011;13860;52.370;6.764;2024-02-26T10:55:36;10.50;;;6.28;;
26098;SDS011;13860;52.370;6.764;2024-02-26T10:58:47;11.18;;;7.07;;
26098;SDS011;13860;52.370;6.764;2024-02-26T11:01:53;16.15;;;8.00;;
26098;SDS011;13860;52.370;6.764;2024-02-26T11:05:02;14.48;;;6.82;;
26098;SDS011;13860;52.370;6.764;2024-02-26T11:08:08;11.27;;;6.13;;
26098;SDS011;13860;52.370;6.764;2024-02-26T11:11:18;17.27;;;7.22;;
26098;SDS011;13860;52.370;6.764;2024-02-26T11:14:27;11.95;;;6.63;;
26098;SDS011;13860;52.370;6.764;2024-02-26T11:17:36;11.90;;;6.28;;
26098;SDS011;13860;52.370;6.764;2024-02-26T11:20:44;10.38;;;6.00;;
26098;SDS011;13860;52.370;6.764;2024-02-26T11:23:53;10.30;;;6.25;;
26098;SDS011;13860;52.370;6.764;2024-02-26T11:26:59;11.30;;;6.57;;
26098;SDS011;13860;52.370;6.764;2024-02-26T11:30:12;9.77;;;5.95;;
26098;SDS011;13860;52.370;6.764;2024-02-26T11:33:19;11.40;;;6.38;;
26098;SDS011;13860;52.370;6.764;2024-02-26T11:36:27;14.00;;;7.15;;
26098;SDS011;13860;52.370;6.764;2024-02-26T11:39:33;10.90;;;6.45;;
26098;SDS011;13860;52.370;6.764;2024-02-26T11:42:43;12.82;;;6.40;;
26098;SDS011;13860;52.370;6.764;2024-02-26T11:45:55;9.95;;;6.30;;
26098;SDS011;13860;52.370;6.764;2024-02-26T11:52:36;12.50;;;6.80;;
26098;SDS011;13860;52.370;6.764;2024-02-26T11:55:45;13.10;;;6.35;;
26098;SDS011;13860;52.370;6.764;2024-02-26T11:58:57;10.05;;;5.93;;
26098;SDS011;13860;52.370;6.764;2024-02-26T12:02:09;12.55;;;6.03;;
26098;SDS011;13860;52.370;6.764;2024-02-26T12:05:15;11.25;;;6.53;;
26098;SDS011;13860;52.370;6.764;2024-02-26T12:08:24;10.98;;;6.15;;
26098;SDS011;13860;52.370;6.764;2024-02-26T12:11:30;12.85;;;6.75;;
26098;SDS011;13860;52.370;6.764;2024-02-26T12:14:38;10.95;;;6.18;;
26098;SDS011;13860;52.370;6.764;2024-02-26T12:17:49;12.25;;;6.70;;
26098;SDS011;13860;52.370;6.764;2024-02-26T12:20:58;13.07;;;7.47;;
26098;SDS011;13860;52.370;6.764;2024-02-26T12:24:11;11.93;;;6.55;;
26098;SDS011;13860;52.370;6.764;2024-02-26T12:27:20;11.32;;;6.50;;
26098;SDS011;13860;52.370;6.764;2024-02-26T12:30:25;11.40;;;7.03;;
26098;SDS011;13860;52.370;6.764;2024-02-26T12:33:39;13.10;;;7.05;;
26098;SDS011;13860;52.370;6.764;2024-02-26T12:36:45;11.90;;;5.88;;
26098;SDS011;13860;52.370;6.764;2024-02-26T12:39:53;11.38;;;6.47;;
26098;SDS011;13860;52.370;6.764;2024-02-26T12:42:58;16.13;;;6.25;;
26098;SDS011;13860;52.370;6.764;2024-02-26T12:46:09;9.98;;;6.07;;
26098;SDS011;13860;52.370;6.764;2024-02-26T12:49:20;14.52;;;6.03;;
26098;SDS011;13860;52.370;6.764;2024-02-26T12:52:29;12.18;;;6.00;;
26098;SDS011;13860;52.370;6.764;2024-02-26T12:55:36;10.70;;;5.93;;
26098;SDS011;13860;52.370;6.764;2024-02-26T12:58:44;12.70;;;6.20;;
26098;SDS011;13860;52.370;6.764;2024-02-26T13:01:50;10.70;;;5.88;;
26098;SDS011;13860;52.370;6.764;2024-02-26T13:05:00;10.20;;;6.05;;
26098;SDS011;13860;52.370;6.764;2024-02-26T13:08:07;12.13;;;5.78;;
26098;SDS011;13860;52.370;6.764;2024-02-26T13:11:15;9.93;;;6.30;;
26098;SDS011;13860;52.370;6.764;2024-02-26T13:14:21;11.20;;;5.88;;
26098;SDS011;13860;52.370;6.764;2024-02-26T13:17:31;10.10;;;5.95;;
26098;SDS011;13860;52.370;6.764;2024-02-26T13:20:39;9.70;;;5.97;;
26098;SDS011;13860;52.370;6.764;2024-02-26T13:23:48;8.85;;;6.00;;
26098;SDS011;13860;52.370;6.764;2024-02-26T13:26:56;10.52;;;6.32;;
26098;SDS011;13860;52.370;6.764;2024-02-26T13:30:06;10.10;;;5.72;;
26098;SDS011;13860;52.370;6.764;2024-02-26T13:33:15;10.90;;;6.35;;
26098;SDS011;13860;52.370;6.764;2024-02-26T13:36:25;7.82;;;5.32;;
26098;SDS011;13860;52.370;6.764;2024-02-26T13:39:31;8.73;;;5.60;;
26098;SDS011;13860;52.370;6.764;2024-02-26T13:42:42;9.43;;;6.05;;
26098;SDS011;13860;52.370;6.764;2024-02-26T13:45:50;10.73;;;6.32;;
26098;SDS011;13860;52.370;6.764;2024-02-26T13:48:57;10.98;;;6.00;;
26098;SDS011;13860;52.370;6.764;2024-02-26T13:52:06;9.18;;;5.90;;
26098;SDS011;13860;52.370;6.764;2024-02-26T13:55:13;11.55;;;6.28;;
26098;SDS011;13860;52.370;6.764;2024-02-26T13:58:19;9.57;;;6.10;;
26098;SDS011;13860;52.370;6.764;2024-02-26T14:01:27;12.85;;;6.13;;
26098;SDS011;13860;52.370;6.764;2024-02-26T14:04:35;9.25;;;5.57;;
26098;SDS011;13860;52.370;6.764;2024-02-26T14:07:46;9.52;;;5.95;;
26098;SDS011;13860;52.370;6.764;2024-02-26T14:10:54;10.65;;;6.20;;
26098;SDS011;13860;52.370;6.764;2024-02-26T14:14:02;10.40;;;6.30;;
26098;SDS011;13860;52.370;6.764;2024-02-26T14:17:07;12.77;;;5.90;;
26098;SDS011;13860;52.370;6.764;2024-02-26T14:20:16;10.57;;;6.43;;
26098;SDS011;13860;52.370;6.764;2024-02-26T14:23:24;10.05;;;6.45;;
26098;SDS011;13860;52.370;6.764;2024-02-26T14:26:32;9.68;;;6.13;;
26098;SDS011;13860;52.370;6.764;2024-02-26T14:29:38;10.00;;;5.95;;
26098;SDS011;13860;52.370;6.764;2024-02-26T14:32:47;11.68;;;6.25;;
26098;SDS011;13860;52.370;6.764;2024-02-26T14:35:53;10.32;;;6.22;;
26098;SDS011;13860;52.370;6.764;2024-02-26T14:39:03;9.23;;;6.00;;
26098;SDS011;13860;52.370;6.764;2024-02-26T14:42:13;9.57;;;5.68;;
26098;SDS011;13860;52.370;6.764;2024-02-26T14:45:22;9.70;;;5.70;;
26098;SDS011;13860;52.370;6.764;2024-02-26T14:48:27;8.77;;;5.85;;
26098;SDS011;13860;52.370;6.764;2024-02-26T14:51:36;11.93;;;6.47;;
26098;SDS011;13860;52.370;6.764;2024-02-26T14:54:44;8.90;;;5.55;;
26098;SDS011;13860;52.370;6.764;2024-02-26T14:57:52;9.18;;;5.53;;
26098;SDS011;13860;52.370;6.764;2024-02-26T15:00:58;9.15;;;6.05;;
26098;SDS011;13860;52.370;6.764;2024-02-26T15:04:05;10.20;;;6.72;;
26098;SDS011;13860;52.370;6.764;2024-02-26T15:07:11;12.57;;;6.07;;
26098;SDS011;13860;52.370;6.764;2024-02-26T15:10:22;12.63;;;6.78;;
26098;SDS011;13860;52.370;6.764;2024-02-26T15:13:28;10.15;;;6.65;;
26098;SDS011;13860;52.370;6.764;2024-02-26T15:16:35;11.10;;;6.10;;
26098;SDS011;13860;52.370;6.764;2024-02-26T15:19:42;9.93;;;6.03;;
26098;SDS011;13860;52.370;6.764;2024-02-26T15:22:50;10.75;;;6.38;;
26098;SDS011;13860;52.370;6.764;2024-02-26T15:25:58;11.15;;;6.22;;
26098;SDS011;13860;52.370;6.764;2024-02-26T15:29:07;10.70;;;6.25;;
26098;SDS011;13860;52.370;6.764;2024-02-26T15:32:13;12.55;;;6.20;;
26098;SDS011;13860;52.370;6.764;2024-02-26T15:35:20;9.85;;;5.60;;
26098;SDS011;13860;52.370;6.764;2024-02-26T15:38:26;9.90;;;5.57;;
26098;SDS011;13860;52.370;6.764;2024-02-26T15:41:36;9.88;;;6.43;;
26098;SDS011;13860;52.370;6.764;2024-02-26T15:44:42;11.85;;;6.57;;
26098;SDS011;13860;52.370;6.764;2024-02-26T15:47:50;11.43;;;7.38;;
26098;SDS011;13860;52.370;6.764;2024-02-26T15:50:56;13.95;;;6.45;;
26098;SDS011;13860;52.370;6.764;2024-02-26T15:54:04;10.27;;;6.15;;
26098;SDS011;13860;52.370;6.764;2024-02-26T15:57:13;11.35;;;7.13;;
26098;SDS011;13860;52.370;6.764;2024-02-26T16:00:21;11.15;;;7.13;;
26098;SDS011;13860;52.370;6.764;2024-02-26T16:03:27;9.05;;;5.97;;
26098;SDS011;13860;52.370;6.764;2024-02-26T16:06:36;13.85;;;7.10;;
26098;SDS011;13860;52.370;6.764;2024-02-26T16:09:44;13.65;;;7.70;;
26098;SDS011;13860;52.370;6.764;2024-02-26T16:13:00;13.32;;;7.18;;
26098;SDS011;13860;52.370;6.764;2024-02-26T16:16:08;12.30;;;7.18;;
26098;SDS011;13860;52.370;6.764;2024-02-26T16:19:19;14.32;;;8.18;;
26098;SDS011;13860;52.370;6.764;2024-02-26T16:22:26;13.02;;;7.80;;
26098;SDS011;13860;52.370;6.764;2024-02-26T16:25:35;20.25;;;7.97;;
26098;SDS011;13860;52.370;6.764;2024-02-26T16:28:43;13.95;;;7.88;;
26098;SDS011;13860;52.370;6.764;2024-02-26T16:31:51;13.32;;;7.70;;
26098;SDS011;13860;52.370;6.764;2024-02-26T16:34:58;14.00;;;7.18;;
26098;SDS011;13860;52.370;6.764;2024-02-26T16:38:06;12.10;;;7.53;;
26098;SDS011;13860;52.370;6.764;2024-02-26T16:41:12;11.63;;;7.30;;
26098;SDS011;13860;52.370;6.764;2024-02-26T16:44:22;14.75;;;8.52;;
26098;SDS011;13860;52.370;6.764;2024-02-26T16:47:28;14.10;;;8.98;;
26098;SDS011;13860;52.370;6.764;2024-02-26T16:50:35;23.20;;;9.18;;
26098;SDS011;13860;52.370;6.764;2024-02-26T16:53:41;16.42;;;9.57;;
26098;SDS011;13860;52.370;6.764;2024-02-26T16:56:48;12.32;;;7.93;;
26098;SDS011;13860;52.370;6.764;2024-02-26T16:59:57;16.02;;;9.30;;
26098;SDS011;13860;52.370;6.764;2024-02-26T17:03:04;13.45;;;8.05;;
26098;SDS011;13860;52.370;6.764;2024-02-26T17:06:10;13.38;;;8.82;;
26098;SDS011;13860;52.370;6.764;2024-02-26T17:09:19;15.00;;;8.77;;
26098;SDS011;13860;52.370;6.764;2024-02-26T17:12:25;17.00;;;9.48;;
26098;SDS011;13860;52.370;6.764;2024-02-26T17:15:35;16.92;;;8.93;;
26098;SDS011;13860;52.370;6.764;2024-02-26T17:18:41;16.17;;;8.95;;
26098;SDS011;13860;52.370;6.764;2024-02-26T17:21:49;21.95;;;10.32;;
26098;SDS011;13860;52.370;6.764;2024-02-26T17:24:57;15.88;;;9.48;;
26098;SDS011;13860;52.370;6.764;2024-02-26T17:28:04;19.65;;;9.60;;
26098;SDS011;13860;52.370;6.764;2024-02-26T17:31:14;19.25;;;9.57;;
26098;SDS011;13860;52.370;6.764;2024-02-26T17:34:22;17.70;;;9.73;;
26098;SDS011;13860;52.370;6.764;2024-02-26T17:37:28;18.30;;;9.57;;
26098;SDS011;13860;52.370;6.764;2024-02-26T17:40:35;16.38;;;9.52;;
26098;SDS011;13860;52.370;6.764;2024-02-26T17:43:41;15.43;;;9.05;;
26098;SDS011;13860;52.370;6.764;2024-02-26T17:46:51;16.88;;;9.70;;
26098;SDS011;13860;52.370;6.764;2024-02-26T17:49:56;16.42;;;10.13;;
26098;SDS011;13860;52.370;6.764;2024-02-26T17:53:04;20.00;;;10.35;;
26098;SDS011;13860;52.370;6.764;2024-02-26T17:56:14;18.15;;;9.45;;
26098;SDS011;13860;52.370;6.764;2024-02-26T17:59:22;21.95;;;9.45;;
26098;SDS011;13860;52.370;6.764;2024-02-26T18:02:31;17.30;;;9.77;;
26098;SDS011;13860;52.370;6.764;2024-02-26T18:05:38;18.48;;;9.40;;
26098;SDS011;13860;52.370;6.764;2024-02-26T18:08:44;16.73;;;9.43;;
26098;SDS011;13860;52.370;6.764;2024-02-26T18:11:53;16.45;;;9.95;;
26098;SDS011;13860;52.370;6.764;2024-02-26T18:14:59;18.27;;;9.57;;
26098;SDS011;13860;52.370;6.764;2024-02-26T18:18:09;16.27;;;9.25;;
26098;SDS011;13860;52.370;6.764;2024-02-26T18:21:15;18.25;;;9.88;;
26098;SDS011;13860;52.370;6.764;2024-02-26T18:24:26;16.75;;;9.77;;
26098;SDS011;13860;52.370;6.764;2024-02-26T18:27:31;19.33;;;9.85;;
26098;SDS011;13860;52.370;6.764;2024-02-26T18:30:40;17.70;;;10.20;;
26098;SDS011;13860;52.370;6.764;2024-02-26T18:33:50;20.55;;;10.30;;
26098;SDS011;13860;52.370;6.764;2024-02-26T18:36:58;18.48;;;9.73;;
26098;SDS011;13860;52.370;6.764;2024-02-26T18:40:04;18.35;;;10.45;;